sensor_id;sensor_type;location;lat;lon;timestamp;P1;durP1;ratioP1;P2;durP2;ratioP2
3993;SDS011;2011;48.238;13.948;2023-05-19T00:02:15;18.00;;;8.10;;
3993;SDS011;2011;48.238;13.948;2023-05-19T00:04:46;15.97;;;7.53;;
3993;SDS011;2011;48.238;13.948;2023-05-19T00:07:15;15.70;;;7.53;;
3993;SDS011;2011;48.238;13.948;2023-05-19T00:09:44;12.93;;;7.90;;
3993;SDS011;2011;48.238;13.948;2023-05-19T00:12:12;14.10;;;8.00;;
3993;SDS011;2011;48.238;13.948;2023-05-19T00:14:40;19.63;;;9.70;;
3993;SDS011;2011;48.238;13.948;2023-05-19T00:17:07;17.27;;;9.33;;
3993;SDS011;2011;48.238;13.948;2023-05-19T00:19:34;20.63;;;9.07;;
3993;SDS011;2011;48.238;13.948;2023-05-19T00:22:03;22.10;;;9.80;;
3993;SDS011;2011;48.238;13.948;2023-05-19T00:24:30;18.87;;;9.63;;
3993;SDS011;2011;48.238;13.948;2023-05-19T00:26:58;17.33;;;9.20;;
3993;SDS011;2011;48.238;13.948;2023-05-19T00:29:24;21.20;;;9.83;;
3993;SDS011;2011;48.238;13.948;2023-05-19T00:31:51;16.43;;;8.73;;
3993;SDS011;2011;48.238;13.948;2023-05-19T00:34:18;18.80;;;9.77;;
3993;SDS011;2011;48.238;13.948;2023-05-19T00:36:45;18.73;;;8.47;;
3993;SDS011;2011;48.238;13.948;2023-05-19T00:39:13;30.87;;;10.17;;
3993;SDS011;2011;48.238;13.948;2023-05-19T00:41:40;18.40;;;10.17;;
3993;SDS011;2011;48.238;13.948;2023-05-19T00:44:07;21.17;;;9.57;;
3993;SDS011;2011;48.238;13.948;2023-05-19T00:46:34;13.17;;;8.73;;
3993;SDS011;2011;48.238;13.948;2023-05-19T00:49:02;22.70;;;9.83;;
3993;SDS011;2011;48.238;13.948;2023-05-19T00:51:28;21.63;;;9.17;;
3993;SDS011;2011;48.238;13.948;2023-05-19T00:53:56;19.73;;;9.20;;
3993;SDS011;2011;48.238;13.948;2023-05-19T00:56:24;13.80;;;7.57;;
3993;SDS011;2011;48.238;13.948;2023-05-19T00:58:52;17.20;;;8.83;;
3993;SDS011;2011;48.238;13.948;2023-05-19T01:01:20;18.23;;;8.00;;
3993;SDS011;2011;48.238;13.948;2023-05-19T01:03:47;17.70;;;9.33;;
3993;SDS011;2011;48.238;13.948;2023-05-19T01:06:15;25.30;;;9.13;;
3993;SDS011;2011;48.238;13.948;2023-05-19T01:08:43;17.70;;;8.90;;
3993;SDS011;2011;48.238;13.948;2023-05-19T01:11:10;18.13;;;7.90;;
3993;SDS011;2011;48.238;13.948;2023-05-19T01:13:38;30.00;;;8.47;;
3993;SDS011;2011;48.238;13.948;2023-05-19T01:16:07;22.40;;;8.13;;
3993;SDS011;2011;48.238;13.948;2023-05-19T01:18:40;18.50;;;8.30;;
3993;SDS011;2011;48.238;13.948;2023-05-19T01:24:23;18.70;;;7.70;;
3993;SDS011;2011;48.238;13.948;2023-05-19T01:27:20;19.90;;;7.40;;
3993;SDS011;2011;48.238;13.948;2023-05-19T01:30:23;22.37;;;7.57;;
3993;SDS011;2011;48.238;13.948;2023-05-19T01:32:52;18.37;;;6.50;;
3993;SDS011;2011;48.238;13.948;2023-05-19T01:35:22;16.93;;;6.60;;
3993;SDS011;2011;48.238;13.948;2023-05-19T01:37:50;19.80;;;6.03;;
3993;SDS011;2011;48.238;13.948;2023-05-19T01:40:20;15.33;;;6.50;;
3993;SDS011;2011;48.238;13.948;2023-05-19T01:42:47;18.30;;;6.50;;
3993;SDS011;2011;48.238;13.948;2023-05-19T01:45:16;12.77;;;6.17;;
3993;SDS011;2011;48.238;13.948;2023-05-19T01:47:46;19.07;;;5.87;;
3993;SDS011;2011;48.238;13.948;2023-05-19T01:50:15;13.20;;;6.40;;
3993;SDS011;2011;48.238;13.948;2023-05-19T01:52:42;17.43;;;5.87;;
3993;SDS011;2011;48.238;13.948;2023-05-19T01:55:09;18.10;;;6.17;;
3993;SDS011;2011;48.238;13.948;2023-05-19T01:57:38;13.93;;;6.00;;
3993;SDS011;2011;48.238;13.948;2023-05-19T02:00:13;14.27;;;5.90;;
3993;SDS011;2011;48.238;13.948;2023-05-19T02:02:52;24.50;;;6.40;;
3993;SDS011;2011;48.238;13.948;2023-05-19T02:05:26;19.80;;;5.53;;
3993;SDS011;2011;48.238;13.948;2023-05-19T02:07:57;24.30;;;6.70;;
3993;SDS011;2011;48.238;13.948;2023-05-19T02:10:30;11.93;;;5.33;;
3993;SDS011;2011;48.238;13.948;2023-05-19T02:13:03;15.77;;;6.30;;
3993;SDS011;2011;48.238;13.948;2023-05-19T02:15:33;19.90;;;5.90;;
3993;SDS011;2011;48.238;13.948;2023-05-19T02:18:05;11.17;;;5.77;;
3993;SDS011;2011;48.238;13.948;2023-05-19T02:20:35;12.60;;;6.43;;
3993;SDS011;2011;48.238;13.948;2023-05-19T02:23:02;12.23;;;4.90;;
3993;SDS011;2011;48.238;13.948;2023-05-19T02:25:29;12.70;;;6.10;;
3993;SDS011;2011;48.238;13.948;2023-05-19T02:27:56;21.37;;;7.50;;
3993;SDS011;2011;48.238;13.948;2023-05-19T02:30:24;12.60;;;5.83;;
3993;SDS011;2011;48.238;13.948;2023-05-19T02:32:51;12.30;;;5.80;;
3993;SDS011;2011;48.238;13.948;2023-05-19T02:35:19;15.63;;;6.50;;
3993;SDS011;2011;48.238;13.948;2023-05-19T02:37:46;16.73;;;6.67;;
3993;SDS011;2011;48.238;13.948;2023-05-19T02:40:13;14.70;;;6.87;;
3993;SDS011;2011;48.238;13.948;2023-05-19T02:42:40;11.57;;;6.60;;
3993;SDS011;2011;48.238;13.948;2023-05-19T02:45:07;14.87;;;6.73;;
3993;SDS011;2011;48.238;13.948;2023-05-19T02:47:34;16.80;;;7.40;;
3993;SDS011;2011;48.238;13.948;2023-05-19T02:50:02;18.13;;;6.50;;
3993;SDS011;2011;48.238;13.948;2023-05-19T02:52:31;14.17;;;7.27;;
3993;SDS011;2011;48.238;13.948;2023-05-19T02:54:58;17.70;;;7.53;;
3993;SDS011;2011;48.238;13.948;2023-05-19T02:57:25;18.73;;;7.00;;
3993;SDS011;2011;48.238;13.948;2023-05-19T02:59:55;19.60;;;7.47;;
3993;SDS011;2011;48.238;13.948;2023-05-19T03:02:22;14.90;;;7.00;;
3993;SDS011;2011;48.238;13.948;2023-05-19T03:04:49;18.30;;;7.27;;
3993;SDS011;2011;48.238;13.948;2023-05-19T03:07:16;21.17;;;7.40;;
3993;SDS011;2011;48.238;13.948;2023-05-19T03:09:50;15.93;;;7.47;;
3993;SDS011;2011;48.238;13.948;2023-05-19T03:12:18;15.70;;;7.40;;
3993;SDS011;2011;48.238;13.948;2023-05-19T03:14:45;18.33;;;7.60;;
3993;SDS011;2011;48.238;13.948;2023-05-19T03:17:12;15.40;;;6.50;;
3993;SDS011;2011;48.238;13.948;2023-05-19T03:19:39;18.20;;;7.17;;
3993;SDS011;2011;48.238;13.948;2023-05-19T03:22:06;18.70;;;7.70;;
3993;SDS011;2011;48.238;13.948;2023-05-19T03:24:33;17.87;;;7.73;;
3993;SDS011;2011;48.238;13.948;2023-05-19T03:27:01;19.43;;;6.77;;
3993;SDS011;2011;48.238;13.948;2023-05-19T03:29:29;15.60;;;7.07;;
3993;SDS011;2011;48.238;13.948;2023-05-19T03:31:56;11.40;;;5.80;;
3993;SDS011;2011;48.238;13.948;2023-05-19T03:34:23;13.07;;;6.47;;
3993;SDS011;2011;48.238;13.948;2023-05-19T03:36:50;14.80;;;6.80;;
3993;SDS011;2011;48.238;13.948;2023-05-19T03:39:17;22.17;;;7.83;;
3993;SDS011;2011;48.238;13.948;2023-05-19T03:41:44;15.77;;;7.30;;
3993;SDS011;2011;48.238;13.948;2023-05-19T03:44:12;14.27;;;6.03;;
3993;SDS011;2011;48.238;13.948;2023-05-19T03:46:39;16.30;;;6.40;;
3993;SDS011;2011;48.238;13.948;2023-05-19T03:49:06;12.63;;;6.50;;
3993;SDS011;2011;48.238;13.948;2023-05-19T03:51:33;16.70;;;6.77;;
3993;SDS011;2011;48.238;13.948;2023-05-19T03:54:00;16.10;;;6.60;;
3993;SDS011;2011;48.238;13.948;2023-05-19T03:56:28;14.73;;;6.10;;
3993;SDS011;2011;48.238;13.948;2023-05-19T03:58:56;16.60;;;6.13;;
3993;SDS011;2011;48.238;13.948;2023-05-19T04:01:25;13.63;;;5.57;;
3993;SDS011;2011;48.238;13.948;2023-05-19T04:03:51;18.63;;;6.17;;
3993;SDS011;2011;48.238;13.948;2023-05-19T04:06:18;17.33;;;7.10;;
3993;SDS011;2011;48.238;13.948;2023-05-19T04:08:46;16.07;;;6.07;;
3993;SDS011;2011;48.238;13.948;2023-05-19T04:11:13;11.60;;;5.77;;
3993;SDS011;2011;48.238;13.948;2023-05-19T04:13:39;23.90;;;7.40;;
3993;SDS011;2011;48.238;13.948;2023-05-19T04:16:06;14.60;;;6.63;;
3993;SDS011;2011;48.238;13.948;2023-05-19T04:18:35;17.10;;;6.50;;
3993;SDS011;2011;48.238;13.948;2023-05-19T04:21:02;17.63;;;6.87;;
3993;SDS011;2011;48.238;13.948;2023-05-19T04:23:29;16.97;;;7.63;;
3993;SDS011;2011;48.238;13.948;2023-05-19T04:25:56;15.03;;;6.83;;
3993;SDS011;2011;48.238;13.948;2023-05-19T04:28:24;16.87;;;7.73;;
3993;SDS011;2011;48.238;13.948;2023-05-19T04:30:51;18.93;;;6.83;;
3993;SDS011;2011;48.238;13.948;2023-05-19T04:33:18;27.73;;;6.87;;
3993;SDS011;2011;48.238;13.948;2023-05-19T04:35:47;17.17;;;6.40;;
3993;SDS011;2011;48.238;13.948;2023-05-19T04:38:14;12.73;;;6.83;;
3993;SDS011;2011;48.238;13.948;2023-05-19T04:40:42;18.10;;;7.63;;
3993;SDS011;2011;48.238;13.948;2023-05-19T04:43:09;19.13;;;7.17;;
3993;SDS011;2011;48.238;13.948;2023-05-19T04:45:36;15.00;;;6.90;;
3993;SDS011;2011;48.238;13.948;2023-05-19T04:48:06;22.50;;;7.77;;
3993;SDS011;2011;48.238;13.948;2023-05-19T04:50:33;28.87;;;7.53;;
3993;SDS011;2011;48.238;13.948;2023-05-19T04:53:04;19.00;;;7.70;;
3993;SDS011;2011;48.238;13.948;2023-05-19T04:55:31;22.13;;;7.20;;
3993;SDS011;2011;48.238;13.948;2023-05-19T04:57:58;18.83;;;8.43;;
3993;SDS011;2011;48.238;13.948;2023-05-19T05:00:25;14.40;;;7.40;;
3993;SDS011;2011;48.238;13.948;2023-05-19T05:02:53;18.07;;;7.97;;
3993;SDS011;2011;48.238;13.948;2023-05-19T05:05:21;16.50;;;7.10;;
3993;SDS011;2011;48.238;13.948;2023-05-19T05:07:48;14.63;;;7.10;;
3993;SDS011;2011;48.238;13.948;2023-05-19T05:10:19;19.67;;;7.37;;
3993;SDS011;2011;48.238;13.948;2023-05-19T05:12:47;25.10;;;7.23;;
3993;SDS011;2011;48.238;13.948;2023-05-19T05:15:14;18.67;;;7.63;;
3993;SDS011;2011;48.238;13.948;2023-05-19T05:17:42;17.37;;;7.57;;
3993;SDS011;2011;48.238;13.948;2023-05-19T05:20:10;24.07;;;7.80;;
3993;SDS011;2011;48.238;13.948;2023-05-19T05:22:38;16.03;;;7.23;;
3993;SDS011;2011;48.238;13.948;2023-05-19T05:25:06;17.13;;;8.10;;
3993;SDS011;2011;48.238;13.948;2023-05-19T05:27:35;17.27;;;7.00;;
3993;SDS011;2011;48.238;13.948;2023-05-19T05:30:02;16.93;;;7.57;;
3993;SDS011;2011;48.238;13.948;2023-05-19T05:32:30;20.90;;;7.90;;
3993;SDS011;2011;48.238;13.948;2023-05-19T05:34:57;19.90;;;8.00;;
3993;SDS011;2011;48.238;13.948;2023-05-19T05:37:24;20.10;;;8.70;;
3993;SDS011;2011;48.238;13.948;2023-05-19T05:39:51;19.80;;;6.87;;
3993;SDS011;2011;48.238;13.948;2023-05-19T05:42:18;15.20;;;7.83;;
3993;SDS011;2011;48.238;13.948;2023-05-19T05:44:46;41.17;;;8.63;;
3993;SDS011;2011;48.238;13.948;2023-05-19T05:47:13;20.20;;;8.00;;
3993;SDS011;2011;48.238;13.948;2023-05-19T05:49:41;16.57;;;7.60;;
3993;SDS011;2011;48.238;13.948;2023-05-19T05:52:10;15.70;;;7.13;;
3993;SDS011;2011;48.238;13.948;2023-05-19T05:54:38;16.30;;;8.40;;
3993;SDS011;2011;48.238;13.948;2023-05-19T05:57:05;15.77;;;7.17;;
3993;SDS011;2011;48.238;13.948;2023-05-19T05:59:33;21.50;;;8.10;;
3993;SDS011;2011;48.238;13.948;2023-05-19T06:02:01;13.50;;;7.37;;
3993;SDS011;2011;48.238;13.948;2023-05-19T06:04:29;21.23;;;7.73;;
3993;SDS011;2011;48.238;13.948;2023-05-19T06:06:56;16.00;;;7.73;;
3993;SDS011;2011;48.238;13.948;2023-05-19T06:09:25;13.87;;;8.40;;
3993;SDS011;2011;48.238;13.948;2023-05-19T06:11:56;19.23;;;8.27;;
3993;SDS011;2011;48.238;13.948;2023-05-19T06:14:24;15.93;;;8.77;;
3993;SDS011;2011;48.238;13.948;2023-05-19T06:16:51;18.87;;;8.30;;
3993;SDS011;2011;48.238;13.948;2023-05-19T06:19:19;18.03;;;8.70;;
3993;SDS011;2011;48.238;13.948;2023-05-19T06:21:49;14.47;;;8.23;;
3993;SDS011;2011;48.238;13.948;2023-05-19T06:24:16;15.93;;;8.63;;
3993;SDS011;2011;48.238;13.948;2023-05-19T06:26:43;15.00;;;8.83;;
3993;SDS011;2011;48.238;13.948;2023-05-19T06:29:10;18.17;;;9.30;;
3993;SDS011;2011;48.238;13.948;2023-05-19T06:31:36;14.57;;;8.10;;
3993;SDS011;2011;48.238;13.948;2023-05-19T06:34:03;21.00;;;9.53;;
3993;SDS011;2011;48.238;13.948;2023-05-19T06:36:31;22.50;;;8.73;;
3993;SDS011;2011;48.238;13.948;2023-05-19T06:38:59;15.93;;;9.33;;
3993;SDS011;2011;48.238;13.948;2023-05-19T06:41:26;16.90;;;9.50;;
3993;SDS011;2011;48.238;13.948;2023-05-19T06:43:52;17.67;;;9.53;;
3993;SDS011;2011;48.238;13.948;2023-05-19T06:46:20;20.73;;;9.17;;
3993;SDS011;2011;48.238;13.948;2023-05-19T06:48:47;15.67;;;8.87;;
3993;SDS011;2011;48.238;13.948;2023-05-19T06:51:14;16.77;;;8.97;;
3993;SDS011;2011;48.238;13.948;2023-05-19T06:53:47;23.53;;;10.60;;
3993;SDS011;2011;48.238;13.948;2023-05-19T06:56:13;19.03;;;9.33;;
3993;SDS011;2011;48.238;13.948;2023-05-19T06:58:42;16.90;;;9.13;;
3993;SDS011;2011;48.238;13.948;2023-05-19T07:01:08;14.93;;;9.43;;
3993;SDS011;2011;48.238;13.948;2023-05-19T07:03:35;17.10;;;8.80;;
3993;SDS011;2011;48.238;13.948;2023-05-19T07:06:02;15.10;;;8.17;;
3993;SDS011;2011;48.238;13.948;2023-05-19T07:08:30;16.77;;;9.33;;
3993;SDS011;2011;48.238;13.948;2023-05-19T07:10:58;13.10;;;8.00;;
3993;SDS011;2011;48.238;13.948;2023-05-19T07:13:25;15.90;;;8.70;;
3993;SDS011;2011;48.238;13.948;2023-05-19T07:15:51;15.77;;;8.37;;
3993;SDS011;2011;48.238;13.948;2023-05-19T07:18:19;15.40;;;8.33;;
3993;SDS011;2011;48.238;13.948;2023-05-19T07:20:46;17.57;;;8.67;;
3993;SDS011;2011;48.238;13.948;2023-05-19T07:23:13;17.40;;;8.47;;
3993;SDS011;2011;48.238;13.948;2023-05-19T07:25:40;11.63;;;7.53;;
3993;SDS011;2011;48.238;13.948;2023-05-19T07:28:08;17.10;;;9.30;;
3993;SDS011;2011;48.238;13.948;2023-05-19T07:30:35;19.47;;;9.63;;
3993;SDS011;2011;48.238;13.948;2023-05-19T07:33:03;17.23;;;9.17;;
3993;SDS011;2011;48.238;13.948;2023-05-19T07:35:30;13.17;;;8.27;;
3993;SDS011;2011;48.238;13.948;2023-05-19T07:37:57;22.23;;;9.40;;
3993;SDS011;2011;48.238;13.948;2023-05-19T07:40:24;17.00;;;9.03;;
3993;SDS011;2011;48.238;13.948;2023-05-19T07:42:51;30.63;;;10.20;;
3993;SDS011;2011;48.238;13.948;2023-05-19T07:45:19;14.93;;;9.30;;
3993;SDS011;2011;48.238;13.948;2023-05-19T07:47:46;17.87;;;9.90;;
3993;SDS011;2011;48.238;13.948;2023-05-19T07:50:13;14.43;;;9.17;;
3993;SDS011;2011;48.238;13.948;2023-05-19T07:52:40;17.30;;;8.93;;
3993;SDS011;2011;48.238;13.948;2023-05-19T07:55:07;22.87;;;9.50;;
3993;SDS011;2011;48.238;13.948;2023-05-19T07:57:34;17.67;;;9.90;;
3993;SDS011;2011;48.238;13.948;2023-05-19T08:00:01;22.03;;;10.67;;
3993;SDS011;2011;48.238;13.948;2023-05-19T08:02:33;16.87;;;8.90;;
3993;SDS011;2011;48.238;13.948;2023-05-19T08:04:59;23.40;;;9.60;;
3993;SDS011;2011;48.238;13.948;2023-05-19T08:07:26;17.30;;;9.27;;
3993;SDS011;2011;48.238;13.948;2023-05-19T08:09:53;17.43;;;9.80;;
3993;SDS011;2011;48.238;13.948;2023-05-19T08:12:20;17.30;;;9.60;;
3993;SDS011;2011;48.238;13.948;2023-05-19T08:14:47;18.50;;;10.20;;
3993;SDS011;2011;48.238;13.948;2023-05-19T08:17:14;18.23;;;9.80;;
3993;SDS011;2011;48.238;13.948;2023-05-19T08:19:42;24.17;;;8.80;;
3993;SDS011;2011;48.238;13.948;2023-05-19T08:22:09;18.43;;;8.70;;
3993;SDS011;2011;48.238;13.948;2023-05-19T08:24:36;15.33;;;9.10;;
3993;SDS011;2011;48.238;13.948;2023-05-19T08:27:03;19.07;;;10.67;;
3993;SDS011;2011;48.238;13.948;2023-05-19T08:29:30;20.37;;;10.43;;
3993;SDS011;2011;48.238;13.948;2023-05-19T08:31:57;17.00;;;9.90;;
3993;SDS011;2011;48.238;13.948;2023-05-19T08:34:25;18.60;;;9.67;;
3993;SDS011;2011;48.238;13.948;2023-05-19T08:36:53;23.57;;;9.70;;
3993;SDS011;2011;48.238;13.948;2023-05-19T08:39:21;15.87;;;9.60;;
3993;SDS011;2011;48.238;13.948;2023-05-19T08:41:51;16.23;;;9.27;;
3993;SDS011;2011;48.238;13.948;2023-05-19T08:44:18;17.33;;;9.57;;
3993;SDS011;2011;48.238;13.948;2023-05-19T08:46:45;26.70;;;11.17;;
3993;SDS011;2011;48.238;13.948;2023-05-19T08:49:13;16.07;;;9.87;;
3993;SDS011;2011;48.238;13.948;2023-05-19T08:51:46;20.83;;;11.60;;
3993;SDS011;2011;48.238;13.948;2023-05-19T08:54:23;22.33;;;10.50;;
3993;SDS011;2011;48.238;13.948;2023-05-19T08:56:50;20.50;;;11.07;;
3993;SDS011;2011;48.238;13.948;2023-05-19T08:59:17;20.27;;;9.93;;
3993;SDS011;2011;48.238;13.948;2023-05-19T09:01:45;18.23;;;10.70;;
3993;SDS011;2011;48.238;13.948;2023-05-19T09:04:12;15.23;;;10.43;;
3993;SDS011;2011;48.238;13.948;2023-05-19T09:06:40;19.10;;;11.20;;
3993;SDS011;2011;48.238;13.948;2023-05-19T09:09:09;21.40;;;10.93;;
3993;SDS011;2011;48.238;13.948;2023-05-19T09:11:37;15.13;;;9.47;;
3993;SDS011;2011;48.238;13.948;2023-05-19T09:14:04;17.30;;;9.70;;
3993;SDS011;2011;48.238;13.948;2023-05-19T09:16:31;18.40;;;9.93;;
3993;SDS011;2011;48.238;13.948;2023-05-19T09:18:58;17.17;;;9.47;;
3993;SDS011;2011;48.238;13.948;2023-05-19T09:21:28;16.40;;;9.20;;
3993;SDS011;2011;48.238;13.948;2023-05-19T09:23:56;13.43;;;8.37;;
3993;SDS011;2011;48.238;13.948;2023-05-19T09:26:24;14.10;;;8.53;;
3993;SDS011;2011;48.238;13.948;2023-05-19T09:29:02;15.13;;;9.57;;
3993;SDS011;2011;48.238;13.948;2023-05-19T09:31:36;15.17;;;8.80;;
3993;SDS011;2011;48.238;13.948;2023-05-19T09:34:03;21.40;;;9.40;;
3993;SDS011;2011;48.238;13.948;2023-05-19T09:36:37;16.87;;;8.97;;
3993;SDS011;2011;48.238;13.948;2023-05-19T09:39:11;15.10;;;8.13;;
3993;SDS011;2011;48.238;13.948;2023-05-19T09:41:38;14.23;;;7.97;;
3993;SDS011;2011;48.238;13.948;2023-05-19T09:44:07;12.87;;;8.40;;
3993;SDS011;2011;48.238;13.948;2023-05-19T09:46:43;16.40;;;9.07;;
3993;SDS011;2011;48.238;13.948;2023-05-19T09:49:13;13.53;;;7.70;;
3993;SDS011;2011;48.238;13.948;2023-05-19T09:51:47;13.30;;;8.07;;
3993;SDS011;2011;48.238;13.948;2023-05-19T09:54:15;14.03;;;8.57;;
3993;SDS011;2011;48.238;13.948;2023-05-19T09:56:41;21.60;;;8.80;;
3993;SDS011;2011;48.238;13.948;2023-05-19T09:59:10;14.30;;;8.93;;
3993;SDS011;2011;48.238;13.948;2023-05-19T10:01:39;18.27;;;8.30;;
3993;SDS011;2011;48.238;13.948;2023-05-19T10:04:10;12.90;;;8.33;;
3993;SDS011;2011;48.238;13.948;2023-05-19T10:06:38;11.13;;;6.50;;
3993;SDS011;2011;48.238;13.948;2023-05-19T10:09:05;13.77;;;8.50;;
3993;SDS011;2011;48.238;13.948;2023-05-19T10:11:33;16.37;;;6.83;;
3993;SDS011;2011;48.238;13.948;2023-05-19T10:14:00;13.30;;;7.93;;
3993;SDS011;2011;48.238;13.948;2023-05-19T10:16:28;16.70;;;9.13;;
3993;SDS011;2011;48.238;13.948;2023-05-19T10:18:56;15.00;;;7.93;;
3993;SDS011;2011;48.238;13.948;2023-05-19T10:21:24;11.23;;;7.60;;
3993;SDS011;2011;48.238;13.948;2023-05-19T10:23:51;12.13;;;8.20;;
3993;SDS011;2011;48.238;13.948;2023-05-19T10:26:19;13.30;;;8.10;;
3993;SDS011;2011;48.238;13.948;2023-05-19T10:28:46;13.80;;;8.97;;
3993;SDS011;2011;48.238;13.948;2023-05-19T10:31:15;17.80;;;9.57;;
3993;SDS011;2011;48.238;13.948;2023-05-19T10:33:55;12.70;;;8.37;;
3993;SDS011;2011;48.238;13.948;2023-05-19T10:36:31;19.47;;;9.40;;
3993;SDS011;2011;48.238;13.948;2023-05-19T10:39:10;12.87;;;8.50;;
3993;SDS011;2011;48.238;13.948;2023-05-19T10:41:45;17.07;;;8.30;;
3993;SDS011;2011;48.238;13.948;2023-05-19T10:44:15;13.23;;;7.90;;
3993;SDS011;2011;48.238;13.948;2023-05-19T10:46:49;16.40;;;7.83;;
3993;SDS011;2011;48.238;13.948;2023-05-19T10:49:20;16.63;;;7.90;;
3993;SDS011;2011;48.238;13.948;2023-05-19T10:51:47;19.97;;;7.73;;
3993;SDS011;2011;48.238;13.948;2023-05-19T10:54:14;12.90;;;7.27;;
3993;SDS011;2011;48.238;13.948;2023-05-19T10:56:45;13.97;;;7.40;;
3993;SDS011;2011;48.238;13.948;2023-05-19T11:02:01;11.40;;;7.60;;
3993;SDS011;2011;48.238;13.948;2023-05-19T11:04:39;12.33;;;6.23;;
3993;SDS011;2011;48.238;13.948;2023-05-19T11:07:14;12.43;;;6.50;;
3993;SDS011;2011;48.238;13.948;2023-05-19T11:09:42;17.30;;;6.40;;
3993;SDS011;2011;48.238;13.948;2023-05-19T11:12:09;12.30;;;6.27;;
3993;SDS011;2011;48.238;13.948;2023-05-19T11:14:36;9.27;;;6.37;;
3993;SDS011;2011;48.238;13.948;2023-05-19T11:17:05;9.77;;;6.93;;
3993;SDS011;2011;48.238;13.948;2023-05-19T11:19:50;11.80;;;6.10;;
3993;SDS011;2011;48.238;13.948;2023-05-19T11:22:21;12.77;;;6.07;;
3993;SDS011;2011;48.238;13.948;2023-05-19T11:24:48;10.30;;;6.27;;
3993;SDS011;2011;48.238;13.948;2023-05-19T11:27:21;18.23;;;5.90;;
3993;SDS011;2011;48.238;13.948;2023-05-19T11:29:51;8.47;;;4.47;;
3993;SDS011;2011;48.238;13.948;2023-05-19T11:32:19;13.10;;;5.10;;
3993;SDS011;2011;48.238;13.948;2023-05-19T11:34:48;13.17;;;4.83;;
3993;SDS011;2011;48.238;13.948;2023-05-19T11:37:15;10.83;;;5.90;;
3993;SDS011;2011;48.238;13.948;2023-05-19T11:39:42;12.77;;;5.60;;
3993;SDS011;2011;48.238;13.948;2023-05-19T11:42:11;9.40;;;5.60;;
3993;SDS011;2011;48.238;13.948;2023-05-19T11:44:38;9.00;;;5.03;;
3993;SDS011;2011;48.238;13.948;2023-05-19T11:47:06;7.03;;;4.30;;
3993;SDS011;2011;48.238;13.948;2023-05-19T11:49:34;7.80;;;4.73;;
3993;SDS011;2011;48.238;13.948;2023-05-19T11:52:03;11.83;;;5.17;;
3993;SDS011;2011;48.238;13.948;2023-05-19T11:54:31;13.23;;;4.93;;
3993;SDS011;2011;48.238;13.948;2023-05-19T11:57:00;7.57;;;4.37;;
3993;SDS011;2011;48.238;13.948;2023-05-19T11:59:28;7.33;;;4.43;;
3993;SDS011;2011;48.238;13.948;2023-05-19T12:01:56;7.80;;;5.03;;
3993;SDS011;2011;48.238;13.948;2023-05-19T12:04:26;8.77;;;4.63;;
3993;SDS011;2011;48.238;13.948;2023-05-19T12:06:52;9.90;;;5.00;;
3993;SDS011;2011;48.238;13.948;2023-05-19T12:09:22;9.97;;;4.90;;
3993;SDS011;2011;48.238;13.948;2023-05-19T12:11:49;11.47;;;5.10;;
3993;SDS011;2011;48.238;13.948;2023-05-19T12:14:17;9.93;;;5.27;;
3993;SDS011;2011;48.238;13.948;2023-05-19T12:16:44;15.53;;;4.30;;
3993;SDS011;2011;48.238;13.948;2023-05-19T12:19:11;11.87;;;4.67;;
3993;SDS011;2011;48.238;13.948;2023-05-19T12:21:38;10.23;;;5.50;;
3993;SDS011;2011;48.238;13.948;2023-05-19T12:24:06;8.40;;;4.40;;
3993;SDS011;2011;48.238;13.948;2023-05-19T12:26:35;8.27;;;4.57;;
3993;SDS011;2011;48.238;13.948;2023-05-19T12:29:03;10.83;;;4.83;;
3993;SDS011;2011;48.238;13.948;2023-05-19T12:31:31;15.87;;;4.40;;
3993;SDS011;2011;48.238;13.948;2023-05-19T12:33:59;5.73;;;3.97;;
3993;SDS011;2011;48.238;13.948;2023-05-19T12:36:26;9.93;;;3.50;;
3993;SDS011;2011;48.238;13.948;2023-05-19T12:38:54;7.10;;;3.97;;
3993;SDS011;2011;48.238;13.948;2023-05-19T12:41:22;8.20;;;2.97;;
3993;SDS011;2011;48.238;13.948;2023-05-19T12:43:52;8.47;;;3.47;;
3993;SDS011;2011;48.238;13.948;2023-05-19T12:46:19;6.33;;;3.50;;
3993;SDS011;2011;48.238;13.948;2023-05-19T12:48:46;6.00;;;3.20;;
3993;SDS011;2011;48.238;13.948;2023-05-19T12:51:17;5.33;;;3.40;;
3993;SDS011;2011;48.238;13.948;2023-05-19T12:53:44;10.13;;;3.70;;
3993;SDS011;2011;48.238;13.948;2023-05-19T12:56:11;6.27;;;3.07;;
3993;SDS011;2011;48.238;13.948;2023-05-19T12:58:39;7.23;;;3.93;;
3993;SDS011;2011;48.238;13.948;2023-05-19T13:01:13;7.47;;;3.90;;
3993;SDS011;2011;48.238;13.948;2023-05-19T13:03:41;6.17;;;3.67;;
3993;SDS011;2011;48.238;13.948;2023-05-19T13:06:08;11.63;;;4.00;;
3993;SDS011;2011;48.238;13.948;2023-05-19T13:08:36;8.40;;;3.70;;
3993;SDS011;2011;48.238;13.948;2023-05-19T13:11:04;10.70;;;3.73;;
3993;SDS011;2011;48.238;13.948;2023-05-19T13:13:31;20.90;;;4.10;;
3993;SDS011;2011;48.238;13.948;2023-05-19T13:15:58;7.27;;;4.10;;
3993;SDS011;2011;48.238;13.948;2023-05-19T13:18:26;7.57;;;4.40;;
3993;SDS011;2011;48.238;13.948;2023-05-19T13:20:56;7.03;;;4.03;;
3993;SDS011;2011;48.238;13.948;2023-05-19T13:23:23;7.40;;;3.60;;
3993;SDS011;2011;48.238;13.948;2023-05-19T13:25:50;8.20;;;4.53;;
3993;SDS011;2011;48.238;13.948;2023-05-19T13:28:17;5.97;;;3.90;;
3993;SDS011;2011;48.238;13.948;2023-05-19T13:30:44;9.00;;;4.07;;
3993;SDS011;2011;48.238;13.948;2023-05-19T13:33:11;8.17;;;4.07;;
3993;SDS011;2011;48.238;13.948;2023-05-19T13:35:39;8.07;;;3.63;;
3993;SDS011;2011;48.238;13.948;2023-05-19T13:38:06;8.77;;;3.87;;
3993;SDS011;2011;48.238;13.948;2023-05-19T13:40:34;9.87;;;3.83;;
3993;SDS011;2011;48.238;13.948;2023-05-19T13:43:01;10.03;;;4.47;;
3993;SDS011;2011;48.238;13.948;2023-05-19T13:45:29;9.33;;;4.20;;
3993;SDS011;2011;48.238;13.948;2023-05-19T13:47:56;8.90;;;4.10;;
3993;SDS011;2011;48.238;13.948;2023-05-19T13:50:23;6.80;;;3.90;;
3993;SDS011;2011;48.238;13.948;2023-05-19T13:52:51;9.53;;;4.03;;
3993;SDS011;2011;48.238;13.948;2023-05-19T13:55:18;8.83;;;3.70;;
3993;SDS011;2011;48.238;13.948;2023-05-19T13:57:46;6.33;;;3.83;;
3993;SDS011;2011;48.238;13.948;2023-05-19T14:00:13;19.33;;;4.20;;
3993;SDS011;2011;48.238;13.948;2023-05-19T14:02:42;6.63;;;3.83;;
3993;SDS011;2011;48.238;13.948;2023-05-19T14:05:09;7.00;;;3.83;;
3993;SDS011;2011;48.238;13.948;2023-05-19T14:07:36;20.20;;;4.60;;
3993;SDS011;2011;48.238;13.948;2023-05-19T14:10:05;9.97;;;3.73;;
3993;SDS011;2011;48.238;13.948;2023-05-19T14:12:33;8.77;;;4.37;;
3993;SDS011;2011;48.238;13.948;2023-05-19T14:15:00;9.23;;;4.40;;
3993;SDS011;2011;48.238;13.948;2023-05-19T14:17:27;7.53;;;4.27;;
3993;SDS011;2011;48.238;13.948;2023-05-19T14:19:54;9.17;;;4.30;;
3993;SDS011;2011;48.238;13.948;2023-05-19T14:22:21;9.33;;;3.60;;
3993;SDS011;2011;48.238;13.948;2023-05-19T14:24:48;9.00;;;3.47;;
3993;SDS011;2011;48.238;13.948;2023-05-19T14:27:17;8.47;;;3.20;;
3993;SDS011;2011;48.238;13.948;2023-05-19T14:29:44;8.00;;;3.50;;
3993;SDS011;2011;48.238;13.948;2023-05-19T14:32:13;8.73;;;3.50;;
3993;SDS011;2011;48.238;13.948;2023-05-19T14:34:40;6.90;;;3.70;;
3993;SDS011;2011;48.238;13.948;2023-05-19T14:37:07;7.03;;;3.80;;
3993;SDS011;2011;48.238;13.948;2023-05-19T14:39:34;11.23;;;3.83;;
3993;SDS011;2011;48.238;13.948;2023-05-19T14:42:01;7.80;;;3.40;;
3993;SDS011;2011;48.238;13.948;2023-05-19T14:44:30;5.17;;;3.30;;
3993;SDS011;2011;48.238;13.948;2023-05-19T14:46:58;12.03;;;3.40;;
3993;SDS011;2011;48.238;13.948;2023-05-19T14:49:25;5.63;;;2.93;;
3993;SDS011;2011;48.238;13.948;2023-05-19T14:51:52;10.47;;;3.80;;
3993;SDS011;2011;48.238;13.948;2023-05-19T14:54:18;10.13;;;3.67;;
3993;SDS011;2011;48.238;13.948;2023-05-19T14:56:45;11.70;;;3.50;;
3993;SDS011;2011;48.238;13.948;2023-05-19T14:59:12;6.97;;;3.33;;
3993;SDS011;2011;48.238;13.948;2023-05-19T15:01:40;12.70;;;4.00;;
3993;SDS011;2011;48.238;13.948;2023-05-19T15:04:07;7.20;;;3.47;;